sensor_id;sensor_type;location;lat;lon;timestamp;P1;durP1;ratioP1;P2;durP2;ratioP2
71955;SDS011;59829;50.562;6.258;2023-05-07T00:09:15;4.00;;;2.30;;
71955;SDS011;59829;50.562;6.258;2023-05-07T00:39:16;3.97;;;2.00;;
71955;SDS011;59829;50.562;6.258;2023-05-07T01:09:16;3.17;;;2.10;;
71955;SDS011;59829;50.562;6.258;2023-05-07T02:09:18;2.95;;;1.77;;
71955;SDS011;59829;50.562;6.258;2023-05-07T02:39:18;4.60;;;1.90;;
71955;SDS011;59829;50.562;6.258;2023-05-07T03:09:19;3.08;;;1.70;;
71955;SDS011;59829;50.562;6.258;2023-05-07T03:39:19;2.37;;;1.50;;
71955;SDS011;59829;50.562;6.258;2023-05-07T04:09:19;2.90;;;1.77;;
71955;SDS011;59829;50.562;6.258;2023-05-07T04:39:20;1.77;;;1.30;;
71955;SDS011;59829;50.562;6.258;2023-05-07T05:09:20;2.00;;;1.15;;
71955;SDS011;59829;50.562;6.258;2023-05-07T05:39:20;1.92;;;1.33;;
71955;SDS011;59829;50.562;6.258;2023-05-07T06:09:23;5.47;;;2.47;;
71955;SDS011;59829;50.562;6.258;2023-05-07T06:39:23;2.30;;;1.10;;
71955;SDS011;59829;50.562;6.258;2023-05-07T07:09:23;1.90;;;0.93;;
71955;SDS011;59829;50.562;6.258;2023-05-07T07:39:24;1.50;;;0.80;;
71955;SDS011;59829;50.562;6.258;2023-05-07T08:09:24;1.70;;;1.00;;
71955;SDS011;59829;50.562;6.258;2023-05-07T08:39:25;1.50;;;1.15;;
71955;SDS011;59829;50.562;6.258;2023-05-07T09:09:25;1.42;;;1.00;;
71955;SDS011;59829;50.562;6.258;2023-05-07T09:39:26;1.17;;;0.80;;
71955;SDS011;59829;50.562;6.258;2023-05-07T10:09:45;1.50;;;0.70;;
71955;SDS011;59829;50.562;6.258;2023-05-07T10:39:46;1.67;;;0.80;;
71955;SDS011;59829;50.562;6.258;2023-05-07T11:40:05;2.72;;;1.30;;
71955;SDS011;59829;50.562;6.258;2023-05-07T12:10:07;3.42;;;1.35;;
71955;SDS011;59829;50.562;6.258;2023-05-07T12:40:09;3.33;;;1.10;;
71955;SDS011;59829;50.562;6.258;2023-05-07T13:10:10;2.60;;;1.38;;
71955;SDS011;59829;50.562;6.258;2023-05-07T13:40:11;2.67;;;1.30;;
71955;SDS011;59829;50.562;6.258;2023-05-07T14:10:12;4.70;;;2.03;;
71955;SDS011;59829;50.562;6.258;2023-05-07T15:10:14;5.50;;;3.40;;
71955;SDS011;59829;50.562;6.258;2023-05-07T15:40:15;6.15;;;3.88;;
71955;SDS011;59829;50.562;6.258;2023-05-07T16:40:17;5.40;;;3.03;;
71955;SDS011;59829;50.562;6.258;2023-05-07T17:10:18;6.78;;;3.63;;
71955;SDS011;59829;50.562;6.258;2023-05-07T17:40:19;4.80;;;2.88;;
71955;SDS011;59829;50.562;6.258;2023-05-07T18:10:21;4.78;;;2.88;;
71955;SDS011;59829;50.562;6.258;2023-05-07T18:40:22;5.20;;;2.30;;
71955;SDS011;59829;50.562;6.258;2023-05-07T19:10:22;4.77;;;2.80;;
71955;SDS011;59829;50.562;6.258;2023-05-07T19:40:22;5.37;;;3.20;;
71955;SDS011;59829;50.562;6.258;2023-05-07T20:10:23;5.57;;;3.23;;
71955;SDS011;59829;50.562;6.258;2023-05-07T20:40:23;5.63;;;3.53;;
71955;SDS011;59829;50.562;6.258;2023-05-07T21:10:23;6.13;;;3.57;;
71955;SDS011;59829;50.562;6.258;2023-05-07T21:40:24;5.93;;;3.40;;
71955;SDS011;59829;50.562;6.258;2023-05-07T22:10:24;5.87;;;3.80;;
71955;SDS011;59829;50.562;6.258;2023-05-07T22:40:24;6.13;;;3.90;;
71955;SDS011;59829;50.562;6.258;2023-05-07T23:10:25;7.20;;;4.47;;
71955;SDS011;59829;50.562;6.258;2023-05-07T23:40:25;5.63;;;3.50;;
